createdAt,value
2022-10-20T00:00:09.079Z,102585.88
2022-10-20T00:02:35.805Z,102584.28
2022-10-20T00:05:02.393Z,102594.91
2022-10-20T00:07:28.795Z,102591.34
2022-10-20T00:09:55.133Z,102593.91
2022-10-20T00:12:21.541Z,102583.28
2022-10-20T00:14:48.008Z,102585.16
2022-10-20T00:17:14.348Z,102583.44
2022-10-20T00:19:40.699Z,102571.81
2022-10-20T00:22:07.217Z,102572.66
2022-10-20T00:24:33.628Z,102569.09
2022-10-20T00:26:59.975Z,102561.78
2022-10-20T00:29:26.366Z,102564.50
2022-10-20T00:31:52.819Z,102568.09
2022-10-20T00:34:19.185Z,102566.25
2022-10-20T00:36:50.305Z,102562.78
2022-10-20T00:39:17.827Z,102556.31
2022-10-20T00:41:44.177Z,102553.59
2022-10-20T00:44:29.527Z,102554.63
2022-10-20T00:46:56.336Z,102552.91
2022-10-20T00:49:24.297Z,102546.59
2022-10-20T00:51:51.385Z,102545.75
2022-10-20T00:54:23.803Z,102552.91
2022-10-20T00:56:51.293Z,102554.75
2022-10-20T00:59:19.968Z,102558.50
2022-10-20T01:01:46.655Z,102560.22
2022-10-20T01:04:13.128Z,102555.78
2022-10-20T01:06:39.727Z,102554.03
2022-10-20T01:09:06.314Z,102555.03
2022-10-20T01:11:47.573Z,102549.59
2022-10-20T01:14:23.006Z,102540.72
2022-10-20T01:16:55.531Z,102537.16
2022-10-20T01:19:21.925Z,102538.84
2022-10-20T01:21:54.311Z,102538.84
2022-10-20T01:24:31.670Z,102538.13
2022-10-20T01:26:57.982Z,102537.25
2022-10-20T01:29:30.390Z,102537.25
2022-10-20T01:32:05.885Z,102536.25
2022-10-20T01:34:52.193Z,102536.41
2022-10-20T01:37:34.396Z,102531.13
2022-10-20T01:40:15.690Z,102536.41
2022-10-20T01:42:43.590Z,102531.97
2022-10-20T01:45:10.127Z,102537.53
2022-10-20T01:47:37.214Z,102529.78
2022-10-20T01:50:04.728Z,102538.97
2022-10-20T01:52:31.725Z,102531.53
2022-10-20T01:54:58.240Z,102524.22
2022-10-20T01:57:43.162Z,102525.78
2022-10-20T02:00:13.955Z,102523.81
2022-10-20T02:02:59.161Z,102519.22
2022-10-20T02:05:31.759Z,102511.75
2022-10-20T02:08:12.326Z,102507.31
2022-10-20T02:10:46.822Z,102494.88
2022-10-20T02:13:14.131Z,102485.97
2022-10-20T02:15:43.210Z,102485.09
2022-10-20T02:18:12.663Z,102479.94
2022-10-20T02:20:42.720Z,102470.63
2022-10-20T02:23:09.977Z,102469.03
2022-10-20T02:25:38.074Z,102468.94
2022-10-20T02:28:05.666Z,102468.94
2022-10-20T02:30:32.316Z,102470.50
2022-10-20T02:32:58.755Z,102456.19
2022-10-20T02:35:31.989Z,102463.06
2022-10-20T02:37:58.803Z,102462.47
2022-10-20T02:40:25.365Z,102463.47
2022-10-20T02:42:51.803Z,102466.22
2022-10-20T02:45:18.212Z,102454.44
2022-10-20T02:47:44.608Z,102457.88
2022-10-20T02:50:11.541Z,102453.72
2022-10-20T02:52:38.305Z,102459.31
2022-10-20T02:55:05.445Z,102457.31
2022-10-20T02:57:31.799Z,102454.72
2022-10-20T02:59:58.243Z,102450.28
2022-10-20T03:02:24.719Z,102452.28
2022-10-20T03:04:51.054Z,102447.53
2022-10-20T03:07:17.478Z,102447.53
2022-10-20T03:09:44.310Z,102451.44
2022-10-20T03:12:10.824Z,102458.88
2022-10-20T03:14:37.209Z,102449.72
2022-10-20T03:17:03.741Z,102446.13
2022-10-20T03:19:30.167Z,102454.16
2022-10-20T03:21:56.519Z,102445.25
2022-10-20T03:24:22.959Z,102453.31
2022-10-20T03:26:49.298Z,102450.00
2022-10-20T03:29:15.787Z,102447.28
2022-10-20T03:31:42.225Z,102444.72
2022-10-20T03:34:08.588Z,102436.38
2022-10-20T03:36:34.988Z,102437.09
2022-10-20T03:39:01.331Z,102426.50
2022-10-20T03:41:27.763Z,102423.34
2022-10-20T03:43:54.105Z,102413.59
2022-10-20T03:46:20.553Z,102424.50
2022-10-20T03:48:46.883Z,102416.31
2022-10-20T03:51:13.527Z,102422.78
2022-10-20T03:53:39.925Z,102419.06
2022-10-20T03:56:12.463Z,102410.03
2022-10-20T03:58:38.850Z,102402.44
2022-10-20T04:01:06.810Z,102405.16
2022-10-20T04:03:33.240Z,102398.88
2022-10-20T04:05:59.713Z,102408.75
2022-10-20T04:08:26.109Z,102400.72
2022-10-20T04:10:52.613Z,102410.59
2022-10-20T04:13:18.974Z,102404.31
2022-10-20T04:15:45.301Z,102412.75
2022-10-20T04:18:11.679Z,102409.00
2022-10-20T04:20:39.411Z,102404.59
2022-10-20T04:23:08.457Z,102403.72
2022-10-20T04:25:34.828Z,102416.31
2022-10-20T04:28:01.277Z,102416.31
2022-10-20T04:30:27.630Z,102403.56
2022-10-20T04:32:54.063Z,102411.75
2022-10-20T04:35:20.415Z,102410.03
2022-10-20T04:37:46.806Z,102407.03
2022-10-20T04:40:13.419Z,102413.44
2022-10-20T04:42:39.878Z,102400.84
2022-10-20T04:45:06.452Z,102401.28
2022-10-20T04:47:34.194Z,102392.53
2022-10-20T04:50:00.758Z,102400.59
2022-10-20T04:52:28.403Z,102398.84
2022-10-20T04:54:54.816Z,102389.38
2022-10-20T04:57:21.259Z,102384.69
2022-10-20T04:59:47.707Z,102378.06
2022-10-20T05:02:14.251Z,102381.69
2022-10-20T05:04:40.630Z,102385.38
2022-10-20T05:07:07.286Z,102380.09
2022-10-20T05:09:33.720Z,102373.94
2022-10-20T05:12:00.210Z,102370.50
2022-10-20T05:14:26.872Z,102373.06
2022-10-20T05:16:53.211Z,102378.94
2022-10-20T05:19:19.744Z,102370.66
2022-10-20T05:21:46.119Z,102364.19
2022-10-20T05:24:16.813Z,102370.94
2022-10-20T05:26:46.447Z,102363.03
2022-10-20T05:29:12.952Z,102359.19
2022-10-20T05:31:40.663Z,102346.28
2022-10-20T05:34:07.375Z,102347.28
2022-10-20T05:36:34.057Z,102348.88
2022-10-20T05:39:00.476Z,102346.84
2022-10-20T05:41:28.323Z,102349.56
2022-10-20T05:43:57.271Z,102352.44
2022-10-20T05:46:24.419Z,102352.03
2022-10-20T05:48:53.199Z,102357.88
2022-10-20T05:51:20.994Z,102351.16
2022-10-20T05:53:47.446Z,102362.31
2022-10-20T05:56:18.076Z,102365.63
2022-10-20T05:58:45.015Z,102361.56
2022-10-20T06:01:18.382Z,102367.19
2022-10-20T06:03:50.979Z,102369.03
2022-10-20T06:06:18.218Z,102374.34
2022-10-20T06:08:45.220Z,102378.78
2022-10-20T06:11:12.241Z,102376.78
2022-10-20T06:13:38.720Z,102378.34
2022-10-20T06:16:15.589Z,102379.34
2022-10-20T06:18:45.395Z,102379.22
2022-10-20T06:21:13.931Z,102380.22
2022-10-20T06:23:40.406Z,102389.38
2022-10-20T06:26:08.216Z,102383.22
2022-10-20T06:28:35.833Z,102380.94
2022-10-20T06:31:10.269Z,102379.22
2022-10-20T06:33:36.647Z,102380.78
2022-10-20T06:36:03.236Z,102373.34
2022-10-20T06:38:29.589Z,102371.47
2022-10-20T06:40:55.929Z,102380.50
2022-10-20T06:43:22.280Z,102372.47
2022-10-20T06:45:56.028Z,102370.75
2022-10-20T06:48:22.429Z,102378.34
2022-10-20T06:50:48.874Z,102369.47
2022-10-20T06:53:15.347Z,102374.19
2022-10-20T06:55:41.740Z,102375.38
2022-10-20T06:58:08.278Z,102376.50
2022-10-20T07:00:34.774Z,102383.81
2022-10-20T07:03:01.495Z,102384.94
2022-10-20T07:05:28.030Z,102382.38
2022-10-20T07:07:54.452Z,102379.66
2022-10-20T07:10:20.853Z,102374.22
2022-10-20T07:12:47.300Z,102376.94
2022-10-20T07:15:13.645Z,102378.81
2022-10-20T07:17:40.027Z,102385.25
2022-10-20T07:20:06.766Z,102380.78
2022-10-20T07:22:33.802Z,102376.34
2022-10-20T07:25:06.052Z,102381.69
2022-10-20T07:27:32.457Z,102375.50
2022-10-20T07:30:00.995Z,102385.38
2022-10-20T07:32:30.649Z,102381.78
2022-10-20T07:34:57.006Z,102371.66
2022-10-20T07:37:23.402Z,102374.50
2022-10-20T07:39:49.946Z,102375.34
2022-10-20T07:42:16.398Z,102369.03
2022-10-20T07:44:42.792Z,102370.91
2022-10-20T07:47:09.220Z,102369.03
2022-10-20T07:49:44.277Z,102373.34
2022-10-20T07:52:11.723Z,102369.50
2022-10-20T07:54:38.213Z,102361.03
2022-10-20T07:57:04.744Z,102367.47
2022-10-20T07:59:31.301Z,102363.63
2022-10-20T08:01:59.790Z,102367.19
2022-10-20T08:04:26.748Z,102349.84
2022-10-20T08:06:53.170Z,102350.59
2022-10-20T08:09:19.643Z,102346.00
2022-10-20T08:11:46.045Z,102335.09
2022-10-20T08:14:12.515Z,102342.97
2022-10-20T08:16:47.697Z,102331.09
2022-10-20T08:19:20.025Z,102327.91
2022-10-20T08:21:46.418Z,102330.31
2022-10-20T08:24:12.866Z,102328.19
2022-10-20T08:26:39.330Z,102328.03
2022-10-20T08:29:06.536Z,102318.59
2022-10-20T08:31:32.990Z,102315.53
2022-10-20T08:33:59.868Z,102306.22
2022-10-20T08:36:28.146Z,102313.28
2022-10-20T08:38:54.741Z,102307.53
2022-10-20T08:41:22.559Z,102302.81
2022-10-20T08:43:50.843Z,102303.50
2022-10-20T08:48:50.748Z,102300.31
2022-10-20T08:51:28.123Z,102300.19
2022-10-20T08:53:57.109Z,102297.47
2022-10-20T08:56:25.539Z,102310.63
2022-10-20T08:58:52.179Z,102298.72
2022-10-20T09:01:26.273Z,102304.91
2022-10-20T09:03:55.371Z,102294.69
2022-10-20T09:06:22.078Z,102280.91
2022-10-20T09:08:49.410Z,102283.63
2022-10-20T09:11:18.589Z,102282.50
2022-10-20T09:13:45.412Z,102284.06
2022-10-20T09:16:18.354Z,102290.38
2022-10-20T09:18:57.097Z,102282.88
2022-10-20T09:21:23.549Z,102286.47
2022-10-20T09:23:52.397Z,102277.13
2022-10-20T09:26:30.822Z,102272.72
2022-10-20T09:29:13.690Z,102268.09
2022-10-20T09:31:42.074Z,102264.38
2022-10-20T09:34:27.357Z,102260.50
2022-10-20T09:37:14.015Z,102267.50
2022-10-20T09:39:49.184Z,102261.91
2022-10-20T09:42:25.845Z,102260.59
2022-10-20T09:44:53.782Z,102264.00
2022-10-20T09:47:22.364Z,102262.00
2022-10-20T09:49:55.076Z,102257.41
2022-10-20T09:52:30.693Z,102252.66
2022-10-20T09:55:02.230Z,102245.19
2022-10-20T09:57:28.876Z,102245.88
2022-10-20T09:59:58.648Z,102241.28
2022-10-20T10:02:31.661Z,102228.53
2022-10-20T10:05:15.687Z,102225.66
2022-10-20T10:07:42.408Z,102226.50
2022-10-20T10:10:17.891Z,102220.88
2022-10-20T10:12:51.059Z,102207.25
2022-10-20T10:15:25.959Z,102204.38
2022-10-20T10:17:52.762Z,102206.94
2022-10-20T10:20:19.175Z,102201.50
2022-10-20T10:22:45.745Z,102195.03
2022-10-20T10:25:21.803Z,102183.13
2022-10-20T10:27:59.546Z,102183.81
2022-10-20T10:30:29.135Z,102181.94
2022-10-20T10:32:55.883Z,102175.63
2022-10-20T10:35:30.029Z,102176.19
2022-10-20T10:37:58.214Z,102172.59
2022-10-20T10:40:43.140Z,102166.13
2022-10-20T10:43:12.648Z,102158.13
2022-10-20T10:45:43.750Z,102161.69
2022-10-20T10:48:18.902Z,102149.78
2022-10-20T10:51:00.021Z,102142.44
2022-10-20T10:53:32.688Z,102142.44
2022-10-20T10:56:14.245Z,102132.38
2022-10-20T10:58:40.674Z,102126.09
2022-10-20T11:01:07.149Z,102116.03
2022-10-20T11:03:48.564Z,102108.69
2022-10-20T11:06:21.338Z,102102.41
2022-10-20T11:09:00.930Z,102103.25
2022-10-20T11:11:44.440Z,102095.94
2022-10-20T11:14:15.725Z,102094.94
2022-10-20T11:17:01.020Z,102089.47
2022-10-20T11:19:27.402Z,102095.78
2022-10-20T11:22:00.065Z,102086.59
2022-10-20T11:24:35.720Z,102077.53
2022-10-20T11:27:13.044Z,102086.59
2022-10-20T11:29:42.518Z,102085.56
2022-10-20T11:32:11.962Z,102072.94
2022-10-20T11:34:40.819Z,102064.75
2022-10-20T11:37:13.332Z,102061.00
2022-10-20T11:39:45.504Z,102054.56
2022-10-20T11:42:30.208Z,102056.44
2022-10-20T11:44:56.921Z,102034.63
2022-10-20T11:47:30.098Z,102027.31
2022-10-20T11:49:56.533Z,102030.03
2022-10-20T11:52:35.033Z,102018.09
2022-10-20T11:55:20.600Z,102018.09
2022-10-20T11:58:25.712Z,102007.19
2022-10-20T12:01:01.464Z,102004.47
2022-10-20T12:03:35.027Z,101996.28
2022-10-20T12:06:22.323Z,101999.00
2022-10-20T12:08:57.799Z,101994.41
2022-10-20T12:11:42.935Z,101987.94
2022-10-20T12:14:15.454Z,101990.66
2022-10-20T12:17:08.051Z,101992.53
2022-10-20T12:19:35.253Z,101989.81
2022-10-20T12:22:03.604Z,101967.47
2022-10-20T12:24:39.275Z,101973.34
2022-10-20T12:27:08.531Z,101975.16
2022-10-20T12:29:34.973Z,101977.88
2022-10-20T12:32:21.272Z,101982.47
2022-10-20T12:34:48.519Z,101984.25
2022-10-20T12:37:23.985Z,101987.94
2022-10-20T12:39:51.550Z,101983.50
2022-10-20T12:42:31.474Z,101976.19
2022-10-20T12:45:08.482Z,101970.03
2022-10-20T12:47:38.313Z,101974.66
2022-10-20T12:50:07.793Z,101976.50
2022-10-20T12:52:36.209Z,101973.75
2022-10-20T12:55:05.684Z,101973.75
2022-10-20T12:57:41.642Z,101968.31
2022-10-20T13:00:28.357Z,101973.75
2022-10-20T13:02:55.738Z,101970.19
2022-10-20T13:05:28.040Z,101977.50
2022-10-20T13:07:56.713Z,101966.59
2022-10-20T13:10:37.000Z,101963.88
2022-10-20T13:13:03.394Z,101954.00
2022-10-20T13:15:35.587Z,101951.09
2022-10-20T13:18:03.918Z,101942.91
2022-10-20T13:20:49.132Z,101934.59
2022-10-20T13:23:23.020Z,101933.75
2022-10-20T13:25:51.253Z,101928.13
2022-10-20T13:28:22.295Z,101924.38
2022-10-20T13:31:07.674Z,101914.31
2022-10-20T13:34:03.798Z,101915.34
2022-10-20T13:36:34.305Z,101914.47
2022-10-20T13:39:05.475Z,101911.59
2022-10-20T13:41:48.000Z,101902.56
2022-10-20T13:44:31.353Z,101895.22
2022-10-20T13:47:17.074Z,101891.53
2022-10-20T13:50:05.984Z,101887.88
2022-10-20T13:52:35.154Z,101884.31
2022-10-20T13:55:02.159Z,101879.88
2022-10-20T13:57:30.258Z,101879.72
2022-10-20T14:00:16.859Z,101881.59
2022-10-20T14:02:51.385Z,101876.03
2022-10-20T14:05:19.885Z,101873.28
2022-10-20T14:07:46.300Z,101866.06
2022-10-20T14:10:31.574Z,101870.56
2022-10-20T14:12:58.117Z,101870.56
2022-10-20T14:15:28.363Z,101868.69
2022-10-20T14:18:01.241Z,101865.97
2022-10-20T14:20:29.110Z,101865.13
2022-10-20T14:22:57.393Z,101866.81
2022-10-20T14:25:24.132Z,101867.66
2022-10-20T14:27:54.015Z,101874.81
2022-10-20T14:30:20.687Z,101870.22
2022-10-20T14:32:49.129Z,101867.50
2022-10-20T14:35:18.994Z,101862.22
2022-10-20T14:37:51.138Z,101859.47
2022-10-20T14:40:22.689Z,101855.06
2022-10-20T14:42:49.517Z,101855.91
2022-10-20T14:45:25.133Z,101852.34
2022-10-20T14:47:52.501Z,101853.19
2022-10-20T14:50:35.509Z,101848.56
2022-10-20T14:53:17.029Z,101839.53
2022-10-20T14:55:43.539Z,101837.00
2022-10-20T14:58:45.398Z,101834.28
2022-10-20T15:01:30.574Z,101843.41
2022-10-20T15:04:15.765Z,101837.09
2022-10-20T15:06:43.256Z,101833.53
2022-10-20T15:09:41.287Z,101832.50
2022-10-20T15:12:28.016Z,101825.34
2022-10-20T15:15:02.326Z,101831.66
2022-10-20T15:17:31.544Z,101829.09
2022-10-20T15:20:00.753Z,101830.81
2022-10-20T15:22:27.161Z,101836.25
2022-10-20T15:24:53.648Z,101829.94
2022-10-20T15:27:22.610Z,101829.09
2022-10-20T15:29:52.311Z,101819.22
2022-10-20T15:32:18.958Z,101809.31
2022-10-20T15:34:45.472Z,101816.50
2022-10-20T15:37:11.877Z,101805.59
2022-10-20T15:39:38.282Z,101797.41
2022-10-20T15:42:10.934Z,101792.94
2022-10-20T15:44:37.996Z,101793.81
2022-10-20T15:47:04.414Z,101782.91
2022-10-20T15:49:30.875Z,101788.53
2022-10-20T15:51:57.359Z,101780.34
2022-10-20T15:54:23.775Z,101784.78
2022-10-20T15:56:50.305Z,101781.19
2022-10-20T15:59:16.696Z,101775.59
2022-10-20T16:01:43.071Z,101772.00
2022-10-20T16:04:17.424Z,101780.16
2022-10-20T16:06:44.937Z,101772.00
2022-10-20T16:09:14.969Z,101771.13
2022-10-20T16:11:42.713Z,101772.16
2022-10-20T16:14:09.159Z,101762.09
2022-10-20T16:16:35.526Z,101764.00
2022-10-20T16:19:02.006Z,101762.97
2022-10-20T16:21:28.456Z,101755.81
2022-10-20T16:23:55.027Z,101759.38
2022-10-20T16:26:21.803Z,101758.34
2022-10-20T16:28:49.374Z,101751.91
2022-10-20T16:31:16.588Z,101755.63
2022-10-20T16:33:43.167Z,101747.81
2022-10-20T16:36:10.720Z,101746.97
2022-10-20T16:38:40.116Z,101750.00
2022-10-20T16:41:08.864Z,101749.31
2022-10-20T16:43:44.767Z,101755.13
2022-10-20T16:46:12.358Z,101751.69
2022-10-20T16:48:41.423Z,101752.72
2022-10-20T16:51:10.621Z,101747.75
2022-10-20T16:53:37.004Z,101747.22
2022-10-20T16:56:03.798Z,101752.88
2022-10-20T16:58:30.157Z,101758.47
2022-10-20T17:01:01.060Z,101759.66
2022-10-20T17:03:27.604Z,101750.78
2022-10-20T17:05:55.096Z,101750.97
2022-10-20T17:08:21.461Z,101743.78
2022-10-20T17:10:47.885Z,101751.28
2022-10-20T17:13:14.284Z,101749.91
2022-10-20T17:15:40.629Z,101757.22
2022-10-20T17:18:06.983Z,101747.50
2022-10-20T17:20:36.521Z,101758.75
2022-10-20T17:23:02.938Z,101745.97
2022-10-20T17:25:31.283Z,101730.13
2022-10-20T17:27:58.409Z,101745.59
2022-10-20T17:30:24.739Z,101737.75
2022-10-20T17:32:51.167Z,101724.47
2022-10-20T17:35:17.516Z,101725.47
2022-10-20T17:37:43.957Z,101727.34
2022-10-20T17:40:10.399Z,101726.66
2022-10-20T17:42:37.219Z,101719.50
2022-10-20T17:45:04.182Z,101717.09
2022-10-20T17:47:30.550Z,101713.84
2022-10-20T17:49:56.963Z,101714.69
2022-10-20T17:52:23.355Z,101709.25
2022-10-20T17:54:49.702Z,101708.41
2022-10-20T17:57:16.026Z,101700.41
2022-10-20T17:59:52.575Z,101693.25
2022-10-20T18:02:20.273Z,101685.09
2022-10-20T18:04:46.611Z,101670.44
2022-10-20T18:07:12.971Z,101668.38
2022-10-20T18:09:39.333Z,101666.03
2022-10-20T18:12:05.715Z,101666.88
2022-10-20T18:14:32.869Z,101660.56
2022-10-20T18:16:59.300Z,101655.13
2022-10-20T18:19:25.753Z,101657.66
2022-10-20T18:21:52.173Z,101655.13
2022-10-20T18:24:18.564Z,101654.28
2022-10-20T18:26:45.283Z,101655.28
2022-10-20T18:29:12.277Z,101654.28
2022-10-20T18:31:40.087Z,101660.72
2022-10-20T18:34:11.507Z,101668.03
2022-10-20T18:36:40.617Z,101666.34
2022-10-20T18:39:10.106Z,101668.88
2022-10-20T18:41:38.168Z,101673.34
2022-10-20T18:44:10.671Z,101668.88
2022-10-20T18:46:37.532Z,101657.00
2022-10-20T18:49:04.693Z,101646.78
2022-10-20T18:51:32.035Z,101640.66
2022-10-20T18:53:59.558Z,101646.94
2022-10-20T18:56:27.314Z,101633.16
2022-10-20T18:59:01.228Z,101629.59
2022-10-20T19:01:29.066Z,101642.34
2022-10-20T19:03:56.306Z,101635.88
2022-10-20T19:06:24.255Z,101614.94
2022-10-20T19:08:55.063Z,101601.31
2022-10-20T19:11:22.759Z,101608.66
2022-10-20T19:13:49.183Z,101600.28
2022-10-20T19:16:17.272Z,101592.31
2022-10-20T19:18:44.807Z,101595.22
2022-10-20T19:21:11.375Z,101602.34
2022-10-20T19:23:39.645Z,101579.00
2022-10-20T19:26:26.407Z,101578.16
2022-10-20T19:28:58.828Z,101568.97
2022-10-20T19:31:31.675Z,101565.56
2022-10-20T19:33:59.657Z,101569.31
2022-10-20T19:36:26.411Z,101554.84
2022-10-20T19:38:52.939Z,101557.59
2022-10-20T19:41:19.365Z,101569.47
2022-10-20T19:43:45.811Z,101567.59
2022-10-20T19:46:14.101Z,101580.38
2022-10-20T19:48:40.906Z,101574.91
2022-10-20T19:51:09.728Z,101584.81
2022-10-20T19:53:36.507Z,101592.97
2022-10-20T19:56:03.005Z,101602.00
2022-10-20T19:58:29.392Z,101600.13
2022-10-20T20:00:57.298Z,101582.94
2022-10-20T20:03:24.130Z,101582.09
2022-10-20T20:06:17.074Z,101561.16
2022-10-20T20:08:45.005Z,101566.25
2022-10-20T20:11:21.120Z,101566.25
2022-10-20T20:13:47.570Z,101557.59
2022-10-20T20:16:13.914Z,101557.72
2022-10-20T20:18:40.268Z,101561.31
2022-10-20T20:21:06.713Z,101552.13
2022-10-20T20:23:47.557Z,101559.09
2022-10-20T20:26:21.448Z,101554.50
2022-10-20T20:28:47.830Z,101553.66
2022-10-20T20:31:14.324Z,101561.69
2022-10-20T20:33:40.835Z,101560.78
2022-10-20T20:36:08.114Z,101561.69
2022-10-20T20:38:35.605Z,101554.50
2022-10-20T20:41:03.625Z,101551.78
2022-10-20T20:43:30.368Z,101547.19
2022-10-20T20:46:02.317Z,101537.16
2022-10-20T20:48:28.723Z,101534.59
2022-10-20T20:50:55.888Z,101528.28
2022-10-20T20:53:22.965Z,101528.28
2022-10-20T20:55:53.724Z,101522.00
2022-10-20T20:58:20.255Z,101504.63
2022-10-20T21:00:46.847Z,101511.28
2022-10-20T21:03:13.410Z,101515.00
2022-10-20T21:05:39.828Z,101513.50
2022-10-20T21:08:06.215Z,101517.22
2022-10-20T21:10:34.650Z,101513.97
2022-10-20T21:13:01.000Z,101513.25
2022-10-20T21:15:27.386Z,101505.59
2022-10-20T21:17:53.704Z,101503.56
2022-10-20T21:20:20.127Z,101508.84
2022-10-20T21:22:46.574Z,101503.22
2022-10-20T21:25:12.971Z,101503.91
2022-10-20T21:27:39.303Z,101512.75
2022-10-20T21:30:05.836Z,101504.59
2022-10-20T21:32:32.160Z,101500.72
2022-10-20T21:34:59.253Z,101502.59
2022-10-20T21:37:25.599Z,101503.59
2022-10-20T21:39:51.943Z,101499.16
2022-10-20T21:42:18.285Z,101500.16
2022-10-20T21:44:44.624Z,101492.31
2022-10-20T21:47:11.288Z,101504.06
2022-10-20T21:49:38.580Z,101497.94
2022-10-20T21:52:04.941Z,101492.31
2022-10-20T21:54:31.279Z,101501.34
2022-10-20T21:56:58.067Z,101492.00
2022-10-20T21:59:25.480Z,101493.03
2022-10-20T22:01:53.186Z,101489.97
2022-10-20T22:04:20.603Z,101490.97
2022-10-20T22:06:47.006Z,101484.38
2022-10-20T22:09:14.020Z,101489.97
2022-10-20T22:11:42.700Z,101498.63
2022-10-20T22:14:09.358Z,101503.72
2022-10-20T22:16:37.326Z,101493.69
2022-10-20T22:19:06.473Z,101490.09
2022-10-20T22:21:36.190Z,101496.06
2022-10-20T22:24:03.429Z,101497.63
2022-10-20T22:26:30.293Z,101491.47
2022-10-20T22:28:57.759Z,101491.66
2022-10-20T22:31:24.483Z,101494.19
2022-10-20T22:33:51.786Z,101489.97
2022-10-20T22:36:18.836Z,101484.66
2022-10-20T22:38:45.189Z,101483.63
2022-10-20T22:41:12.148Z,101469.19
2022-10-20T22:43:38.890Z,101468.84
2022-10-20T22:46:05.495Z,101471.38
2022-10-20T22:48:31.947Z,101468.19
2022-10-20T22:50:58.506Z,101470.53
2022-10-20T22:53:24.890Z,101465.63
2022-10-20T22:55:51.547Z,101463.44
2022-10-20T22:58:17.890Z,101465.31
2022-10-20T23:00:44.383Z,101455.47
2022-10-20T23:03:10.817Z,101452.84
2022-10-20T23:05:37.178Z,101452.00
2022-10-20T23:08:03.583Z,101450.31
2022-10-20T23:10:29.951Z,101440.28
2022-10-20T23:12:56.283Z,101441.66
2022-10-20T23:15:22.949Z,101442.34
2022-10-20T23:17:49.302Z,101446.59
2022-10-20T23:20:15.702Z,101435.72
2022-10-20T23:22:42.052Z,101433.16
2022-10-20T23:25:08.748Z,101432.47
2022-10-20T23:27:35.773Z,101435.38
2022-10-20T23:30:02.388Z,101433.78
2022-10-20T23:32:28.743Z,101438.38
2022-10-20T23:34:55.110Z,101431.06
2022-10-20T23:37:23.569Z,101430.94
2022-10-20T23:39:49.928Z,101427.50
2022-10-20T23:42:16.258Z,101434.31
2022-10-20T23:44:43.048Z,101429.88
2022-10-20T23:47:09.489Z,101424.97
2022-10-20T23:49:35.861Z,101413.38
2022-10-20T23:52:02.212Z,101420.03
2022-10-20T23:54:28.584Z,101416.28
2022-10-20T23:56:55.070Z,101417.97
2022-10-20T23:59:21.468Z,101417.81
